Time;durP1;ratioP1;P1;durP2;ratioP2;P2;SDS_P1;SDS_P2;PMS_P1;PMS_P2;Temp;Humidity;BMP_temperature;BMP_pressure;BME280_temperature;BME280_humidity;BME280_pressure;Samples;Min_cycle;Max_cycle;Signal;HPM_P1;HPM_P2
2023/05/31 00:02:23;;;;;;;3.78;1.40;;;30.40;99.90;;;;;;5066730;28;20036;-40
2023/05/31 00:04:50;;;;;;;4.55;1.33;;;30.30;99.90;;;;;;5067390;28;20083;-39
2023/05/31 00:07:16;;;;;;;2.88;1.45;;;30.20;99.90;;;;;;5066973;28;20060;-38
2023/05/31 00:09:43;;;;;;;3.47;1.20;;;30.20;99.90;;;;;;5066843;28;20059;-41
2023/05/31 00:12:09;;;;;;;6.35;1.70;;;30.00;99.90;;;;;;5063872;28;20048;-39
2023/05/31 00:14:36;;;;;;;3.33;1.20;;;29.90;99.90;;;;;;5067232;28;20075;-39
2023/05/31 00:17:02;;;;;;;2.80;1.08;;;29.80;99.90;;;;;;5059417;28;20028;-44
2023/05/31 00:19:29;;;;;;;4.15;1.30;;;29.80;99.90;;;;;;5062140;28;20033;-40
2023/05/31 00:21:56;;;;;;;2.67;1.15;;;29.70;99.90;;;;;;5066774;28;20233;-39
2023/05/31 00:24:22;;;;;;;2.83;1.10;;;29.60;99.90;;;;;;5066861;28;20031;-42
2023/05/31 00:26:49;;;;;;;4.05;1.45;;;29.60;99.90;;;;;;5066623;28;20353;-42
2023/05/31 00:29:15;;;;;;;3.90;1.70;;;29.60;99.90;;;;;;5066024;28;20037;-42
2023/05/31 00:31:42;;;;;;;3.00;1.52;;;29.50;99.90;;;;;;5064290;28;20029;-47
2023/05/31 00:34:10;;;;;;;5.20;1.77;;;29.60;99.90;;;;;;5065149;28;20037;-42
2023/05/31 00:36:37;;;;;;;4.45;1.92;;;29.60;99.90;;;;;;5064819;28;20074;-42
2023/05/31 00:39:03;;;;;;;4.60;2.00;;;29.50;99.90;;;;;;5065032;28;20221;-49
2023/05/31 00:41:31;;;;;;;4.15;1.50;;;29.50;99.90;;;;;;5064642;28;20063;-41
2023/05/31 00:43:58;;;;;;;2.17;1.13;;;29.50;99.90;;;;;;5064651;28;20036;-43
2023/05/31 00:46:31;;;;;;;6.22;1.63;;;29.50;99.90;;;;;;5064487;28;20029;-48
2023/05/31 00:48:58;;;;;;;5.05;2.05;;;29.50;99.90;;;;;;5060846;28;20021;-43
2023/05/31 00:51:27;;;;;;;5.07;2.00;;;29.50;99.90;;;;;;5057337;28;20071;-42
2023/05/31 00:53:54;;;;;;;6.20;2.03;;;29.40;99.90;;;;;;5046007;28;20021;-43
2023/05/31 00:56:21;;;;;;;4.40;1.90;;;29.50;99.90;;;;;;5046253;28;20037;-41
2023/05/31 00:58:50;;;;;;;4.82;1.70;;;29.40;99.90;;;;;;5045171;28;20032;-42
2023/05/31 01:01:18;;;;;;;2.92;1.27;;;29.40;99.90;;;;;;5045606;28;20348;-47
2023/05/31 01:03:44;;;;;;;3.65;1.20;;;29.40;99.90;;;;;;5046123;28;20080;-45
2023/05/31 01:06:11;;;;;;;2.75;1.30;;;29.40;99.90;;;;;;5050345;28;20092;-42
2023/05/31 01:08:38;;;;;;;1.27;0.70;;;29.40;99.90;;;;;;5065768;28;20142;-46
2023/05/31 01:11:25;;;;;;;1.65;0.60;;;29.40;99.90;;;;;;5074215;28;20040;-42
2023/05/31 01:13:57;;;;;;;1.45;0.70;;;29.30;99.90;;;;;;5064451;28;20053;-42
2023/05/31 01:16:35;;;;;;;;;;;29.30;99.90;;;;;;5048295;28;20026;-42
2023/05/31 01:19:07;;;;;;;1.92;0.70;;;29.30;99.90;;;;;;5053127;28;19912;-46
2023/05/31 01:21:52;;;;;;;1.23;0.70;;;29.20;99.90;;;;;;5049381;28;20120;-50
2023/05/31 01:24:45;;;;;;;1.15;0.40;;;29.30;99.90;;;;;;5045718;28;20053;-47
2023/05/31 01:27:14;;;;;;;1.60;0.45;;;29.30;99.90;;;;;;5045551;28;20052;-51
2023/05/31 01:29:42;;;;;;;1.67;0.40;;;29.20;99.90;;;;;;5045175;28;20029;-48
2023/05/31 01:32:13;;;;;;;0.85;0.60;;;29.30;99.90;;;;;;5045426;28;20064;-43
2023/05/31 01:34:43;;;;;;;2.70;0.82;;;29.20;99.90;;;;;;5045612;28;20079;-44
2023/05/31 01:37:09;;;;;;;1.60;0.88;;;29.20;99.90;;;;;;5045282;28;20037;-42
2023/05/31 01:39:36;;;;;;;1.98;1.00;;;29.20;99.90;;;;;;5045358;28;20017;-44
2023/05/31 01:42:05;;;;;;;2.42;1.00;;;29.20;99.90;;;;;;5045406;28;20233;-42
2023/05/31 01:44:33;;;;;;;1.58;0.90;;;29.10;99.90;;;;;;5044877;28;20033;-42
2023/05/31 01:47:00;;;;;;;2.15;1.00;;;29.10;99.90;;;;;;5045240;28;20025;-44
2023/05/31 01:49:28;;;;;;;3.20;0.82;;;29.20;99.90;;;;;;5045310;28;20286;-47
2023/05/31 01:51:56;;;;;;;1.80;0.80;;;29.20;99.90;;;;;;5044958;28;20041;-44
2023/05/31 01:54:22;;;;;;;2.53;0.80;;;29.20;99.90;;;;;;5053857;28;20188;-42
2023/05/31 01:56:51;;;;;;;2.25;0.60;;;29.20;99.90;;;;;;5047446;28;20017;-42
2023/05/31 01:59:18;;;;;;;0.98;0.68;;;29.10;99.90;;;;;;5044680;28;20105;-45
2023/05/31 02:01:45;;;;;;;3.30;0.68;;;29.20;99.90;;;;;;5044930;28;20025;-44
2023/05/31 02:04:12;;;;;;;2.13;0.60;;;29.20;99.90;;;;;;5045101;28;20025;-42
2023/05/31 02:06:38;;;;;;;2.22;0.70;;;29.10;99.90;;;;;;5044749;28;20100;-42
2023/05/31 02:09:06;;;;;;;1.35;0.90;;;29.10;99.90;;;;;;5044774;28;20017;-51
2023/05/31 02:11:33;;;;;;;1.42;0.82;;;29.10;99.90;;;;;;5044528;28;20053;-46
2023/05/31 02:13:59;;;;;;;2.63;1.00;;;29.10;99.90;;;;;;5060110;28;20041;-41
2023/05/31 02:16:26;;;;;;;3.85;1.20;;;29.20;99.90;;;;;;5064666;28;20024;-41
2023/05/31 02:18:55;;;;;;;1.75;1.38;;;29.10;99.90;;;;;;5064036;28;20324;-44
2023/05/31 02:21:23;;;;;;;2.00;1.10;;;29.10;99.90;;;;;;5055068;28;20048;-43
2023/05/31 02:23:49;;;;;;;1.35;1.10;;;29.00;99.90;;;;;;5046163;28;20021;-42
2023/05/31 02:26:18;;;;;;;1.85;1.08;;;29.10;99.90;;;;;;5044684;28;20029;-43
2023/05/31 02:28:46;;;;;;;2.30;0.95;;;29.10;99.90;;;;;;5043796;28;20037;-49
2023/05/31 02:31:12;;;;;;;1.48;0.70;;;29.10;99.90;;;;;;5047825;28;20032;-48
2023/05/31 02:33:44;;;;;;;1.58;0.75;;;29.10;99.90;;;;;;5044416;28;20018;-42
2023/05/31 02:36:11;;;;;;;1.15;0.75;;;29.10;99.90;;;;;;5044613;28;20091;-46
2023/05/31 02:38:38;;;;;;;3.58;1.00;;;29.10;99.90;;;;;;5044558;28;20075;-48
2023/05/31 02:41:04;;;;;;;4.63;1.10;;;29.10;99.90;;;;;;5063463;28;20070;-52
2023/05/31 02:43:31;;;;;;;2.70;1.30;;;29.10;99.90;;;;;;5061268;28;20087;-42
2023/05/31 02:46:01;;;;;;;2.15;0.88;;;29.10;99.90;;;;;;5064590;28;20031;-43
2023/05/31 02:48:30;;;;;;;2.55;0.90;;;29.00;99.90;;;;;;5064117;28;20041;-47
2023/05/31 02:50:56;;;;;;;2.35;0.88;;;29.00;99.90;;;;;;5062466;28;20033;-42
2023/05/31 02:53:23;;;;;;;2.08;1.08;;;29.00;99.90;;;;;;5048691;28;20201;-42
2023/05/31 02:55:49;;;;;;;2.28;0.90;;;29.00;99.90;;;;;;5044460;28;20025;-42
2023/05/31 02:58:16;;;;;;;3.03;0.80;;;29.00;99.90;;;;;;5043593;28;20049;-42
2023/05/31 03:00:42;;;;;;;2.53;0.73;;;29.00;99.90;;;;;;5044356;28;20025;-45
2023/05/31 03:03:10;;;;;;;2.13;0.70;;;29.10;99.90;;;;;;5043965;28;20061;-42
2023/05/31 03:05:38;;;;;;;1.27;0.77;;;29.00;99.90;;;;;;5044189;28;20035;-43
2023/05/31 03:08:04;;;;;;;2.58;0.50;;;29.00;99.90;;;;;;5043924;28;20084;-48
2023/05/31 03:10:31;;;;;;;1.58;0.60;;;29.00;99.90;;;;;;5044111;28;20041;-44
2023/05/31 03:12:57;;;;;;;3.22;0.65;;;29.00;99.90;;;;;;5043438;28;20065;-43
2023/05/31 03:15:24;;;;;;;3.42;2.17;;;29.00;99.90;;;;;;5045708;28;20079;-42
2023/05/31 03:17:50;;;;;;;3.83;1.60;;;29.00;99.90;;;;;;5052310;28;20079;-43
2023/05/31 03:20:16;;;;;;;4.43;1.65;;;29.00;99.90;;;;;;5045770;28;20124;-42
2023/05/31 03:22:43;;;;;;;2.47;1.60;;;29.00;99.90;;;;;;5058908;28;20022;-44
2023/05/31 03:25:10;;;;;;;3.33;1.55;;;29.00;99.90;;;;;;5062578;28;20029;-48
2023/05/31 03:27:36;;;;;;;2.20;1.05;;;29.00;99.90;;;;;;5070107;28;20226;-44
2023/05/31 03:30:04;;;;;;;3.45;1.50;;;29.00;99.90;;;;;;5068618;28;20237;-42
2023/05/31 03:32:30;;;;;;;1.83;1.10;;;29.00;99.90;;;;;;5059264;28;20044;-45
2023/05/31 03:34:57;;;;;;;1.58;0.90;;;28.90;99.90;;;;;;5070370;28;20367;-45
2023/05/31 03:37:23;;;;;;;1.40;0.80;;;28.90;99.90;;;;;;5070235;28;20029;-46
2023/05/31 03:39:50;;;;;;;2.55;0.80;;;28.90;99.90;;;;;;5070347;28;20048;-42
2023/05/31 03:42:16;;;;;;;3.40;0.60;;;28.90;99.90;;;;;;5070362;28;20036;-44
2023/05/31 03:44:43;;;;;;;0.55;0.40;;;28.90;99.90;;;;;;5070289;28;20131;-43
2023/05/31 03:47:11;;;;;;;1.40;0.45;;;28.90;99.90;;;;;;5070125;28;20044;-51
2023/05/31 03:49:37;;;;;;;1.92;0.40;;;28.80;99.90;;;;;;5070208;28;20021;-47
2023/05/31 03:52:04;;;;;;;2.58;0.47;;;28.80;99.90;;;;;;5070073;28;20037;-44
2023/05/31 03:54:30;;;;;;;2.40;0.30;;;28.80;99.90;;;;;;5070156;28;20033;-42
2023/05/31 03:56:57;;;;;;;3.05;0.40;;;28.80;99.90;;;;;;5070064;28;20088;-45
2023/05/31 03:59:23;;;;;;;1.90;0.28;;;28.80;99.90;;;;;;5070028;28;20089;-43
2023/05/31 04:01:50;;;;;;;2.38;0.20;;;28.70;99.90;;;;;;5070045;28;20029;-44
2023/05/31 04:04:16;;;;;;;1.25;0.13;;;28.70;99.90;;;;;;5063125;28;20301;-44
2023/05/31 04:06:43;;;;;;;1.05;0.40;;;28.70;99.90;;;;;;5054261;28;20330;-44
2023/05/31 04:09:09;;;;;;;1.83;0.40;;;28.70;99.90;;;;;;5049821;28;20276;-44
2023/05/31 04:11:36;;;;;;;1.20;0.40;;;28.70;99.90;;;;;;5049693;28;20033;-44
2023/05/31 04:14:02;;;;;;;3.20;0.47;;;28.70;99.90;;;;;;5049677;28;20104;-46
2023/05/31 04:16:29;;;;;;;1.52;0.30;;;28.70;99.90;;;;;;5049857;28;20033;-43
2023/05/31 04:18:55;;;;;;;0.57;0.30;;;28.70;99.90;;;;;;5049858;28;20022;-47
2023/05/31 04:21:22;;;;;;;0.98;0.20;;;28.60;99.90;;;;;;5049640;28;20033;-43
2023/05/31 04:23:50;;;;;;;1.13;0.20;;;28.60;99.90;;;;;;5049701;28;20065;-43
2023/05/31 04:26:17;;;;;;;0.85;0.20;;;28.60;99.90;;;;;;5049867;28;20033;-42
2023/05/31 04:28:44;;;;;;;0.88;0.30;;;28.60;99.90;;;;;;5049607;28;20087;-42
2023/05/31 04:31:12;;;;;;;6.80;0.70;;;28.60;99.90;;;;;;5050102;28;20033;-49
2023/05/31 04:33:42;;;;;;;2.72;0.45;;;28.60;99.90;;;;;;5046225;28;20256;-51
2023/05/31 04:36:08;;;;;;;1.15;0.50;;;28.50;99.90;;;;;;5046946;28;20021;-43
2023/05/31 04:38:35;;;;;;;1.70;0.60;;;28.50;99.90;;;;;;5046588;28;20226;-47
2023/05/31 04:41:01;;;;;;;2.35;0.47;;;28.60;99.90;;;;;;5046972;28;20029;-44
2023/05/31 04:43:28;;;;;;;3.15;0.57;;;28.50;99.90;;;;;;5046405;28;20025;-44
2023/05/31 04:45:55;;;;;;;1.05;0.50;;;28.50;99.90;;;;;;5046916;28;20044;-41
2023/05/31 04:48:22;;;;;;;0.98;0.40;;;28.50;99.90;;;;;;5046388;28;20037;-46
2023/05/31 04:50:48;;;;;;;2.08;0.60;;;28.40;99.90;;;;;;5046549;28;20120;-46
2023/05/31 04:53:15;;;;;;;3.88;0.70;;;28.40;99.90;;;;;;5055383;28;20341;-49
2023/05/31 04:55:42;;;;;;;2.05;0.70;;;28.50;99.90;;;;;;5066099;28;20020;-50
2023/05/31 04:58:08;;;;;;;3.05;0.43;;;28.50;99.90;;;;;;5066004;28;20333;-44
2023/05/31 05:00:36;;;;;;;2.95;0.50;;;28.50;99.90;;;;;;5066560;28;20251;-42
2023/05/31 05:03:03;;;;;;;5.10;0.55;;;28.40;99.90;;;;;;5066047;28;20026;-43
2023/05/31 05:05:30;;;;;;;3.67;0.60;;;28.50;99.90;;;;;;5066241;28;20089;-45
2023/05/31 05:07:57;;;;;;;5.00;0.47;;;28.40;99.90;;;;;;5065988;28;20332;-44
2023/05/31 05:10:23;;;;;;;1.75;0.40;;;28.40;99.90;;;;;;5066278;28;20025;-51
2023/05/31 05:12:50;;;;;;;2.30;0.30;;;28.40;99.90;;;;;;5065630;28;20049;-46
2023/05/31 05:15:18;;;;;;;1.30;0.30;;;28.40;99.90;;;;;;5066151;28;20023;-44
2023/05/31 05:17:45;;;;;;;5.07;0.40;;;28.30;99.90;;;;;;5065843;28;20033;-48
2023/05/31 05:20:12;;;;;;;0.98;0.30;;;28.30;99.90;;;;;;5065923;28;20017;-42
2023/05/31 05:22:39;;;;;;;2.20;0.40;;;28.30;99.90;;;;;;5065719;28;20037;-41
2023/05/31 05:25:06;;;;;;;2.72;0.60;;;28.40;99.90;;;;;;5066056;28;20029;-42
2023/05/31 05:27:33;;;;;;;2.53;0.40;;;28.30;99.90;;;;;;5065380;28;20084;-44
2023/05/31 05:29:59;;;;;;;2.72;0.50;;;28.30;99.90;;;;;;5066025;28;20041;-42
2023/05/31 05:32:26;;;;;;;3.72;0.60;;;28.20;99.90;;;;;;5065398;28;20033;-44
2023/05/31 05:34:52;;;;;;;5.07;0.73;;;28.20;99.90;;;;;;5065746;28;20021;-47
2023/05/31 05:37:19;;;;;;;3.42;0.40;;;28.20;99.90;;;;;;5065459;28;20048;-43
2023/05/31 05:39:45;;;;;;;1.73;0.50;;;28.20;99.90;;;;;;5065369;28;20021;-43
2023/05/31 05:42:12;;;;;;;3.90;0.60;;;28.20;99.90;;;;;;5065384;28;20036;-47
2023/05/31 05:44:38;;;;;;;7.00;0.70;;;28.30;99.90;;;;;;5064947;28;20290;-42
2023/05/31 05:47:05;;;;;;;5.55;0.60;;;28.20;99.90;;;;;;5065451;28;20033;-42
2023/05/31 05:49:33;;;;;;;5.70;0.70;;;28.30;99.90;;;;;;5065385;28;20039;-45
2023/05/31 05:52:00;;;;;;;3.40;0.52;;;28.20;99.90;;;;;;5065190;28;20151;-49
2023/05/31 05:54:26;;;;;;;3.92;0.50;;;28.20;99.90;;;;;;5065231;28;20029;-43
2023/05/31 05:56:53;;;;;;;3.85;0.65;;;28.20;99.90;;;;;;5065073;28;20021;-43
2023/05/31 05:59:19;;;;;;;3.78;0.70;;;28.30;99.90;;;;;;5064988;28;20025;-44
2023/05/31 06:01:46;;;;;;;1.92;0.30;;;28.30;99.90;;;;;;5064966;28;20033;-43
2023/05/31 06:04:12;;;;;;;1.65;0.50;;;28.30;99.90;;;;;;5064988;28;20078;-44
2023/05/31 06:06:39;;;;;;;2.28;0.43;;;28.40;99.90;;;;;;5064752;28;20044;-43
2023/05/31 06:09:06;;;;;;;3.70;0.38;;;28.30;99.90;;;;;;5064860;28;20056;-43
2023/05/31 06:11:32;;;;;;;4.07;0.50;;;28.30;99.90;;;;;;5064578;28;20394;-44
2023/05/31 06:13:59;;;;;;;9.55;0.82;;;28.30;99.90;;;;;;5064522;28;20029;-47
2023/05/31 06:16:25;;;;;;;3.28;0.30;;;28.30;99.90;;;;;;5064745;28;20036;-42
2023/05/31 06:18:53;;;;;;;2.17;0.30;;;28.30;99.90;;;;;;5064608;28;20024;-44
2023/05/31 06:21:19;;;;;;;2.10;0.57;;;28.30;99.90;;;;;;5064474;28;20068;-47
2023/05/31 06:23:46;;;;;;;2.42;0.50;;;28.30;99.90;;;;;;5064593;28;20032;-46
2023/05/31 06:26:12;;;;;;;4.25;0.65;;;28.30;99.90;;;;;;5065020;28;20021;-43
2023/05/31 06:28:38;;;;;;;3.83;0.75;;;28.30;99.90;;;;;;5064374;28;20043;-42
2023/05/31 06:31:07;;;;;;;3.67;0.47;;;28.30;99.90;;;;;;5064799;28;20244;-45
2023/05/31 06:33:34;;;;;;;2.13;0.52;;;28.20;99.90;;;;;;5064723;28;20096;-42
2023/05/31 06:36:00;;;;;;;1.20;0.40;;;28.30;99.90;;;;;;5064681;28;20025;-45
2023/05/31 06:38:27;;;;;;;1.45;0.50;;;28.30;99.90;;;;;;5064316;28;20139;-43
2023/05/31 06:40:54;;;;;;;3.10;0.50;;;28.40;99.90;;;;;;5064704;28;20017;-44
2023/05/31 06:43:20;;;;;;;2.45;0.80;;;28.40;99.90;;;;;;5064147;28;20041;-42
2023/05/31 06:45:49;;;;;;;4.53;0.70;;;28.30;99.90;;;;;;5064621;28;20068;-42
2023/05/31 06:48:16;;;;;;;1.38;0.38;;;28.30;99.90;;;;;;5064208;28;20028;-43
2023/05/31 06:50:42;;;;;;;4.88;0.80;;;28.40;99.90;;;;;;5064351;28;20100;-50
2023/05/31 06:53:12;;;;;;;7.35;0.80;;;28.30;99.90;;;;;;5064075;28;20268;-43
2023/05/31 06:55:39;;;;;;;3.95;0.60;;;28.30;99.90;;;;;;5063909;28;20062;-44
2023/05/31 06:58:06;;;;;;;3.60;0.60;;;28.30;99.90;;;;;;5063727;28;20033;-43
2023/05/31 07:00:32;;;;;;;2.25;0.65;;;28.40;99.90;;;;;;5064260;28;20067;-43
2023/05/31 07:02:59;;;;;;;4.60;0.50;;;28.30;99.90;;;;;;5053759;28;20044;-46
2023/05/31 07:05:25;;;;;;;4.63;0.50;;;28.30;99.90;;;;;;5061284;28;20025;-47
2023/05/31 07:07:52;;;;;;;1.65;0.50;;;28.30;99.90;;;;;;5063864;28;20056;-44
2023/05/31 07:10:19;;;;;;;4.90;0.57;;;28.30;99.90;;;;;;5064281;28;20120;-45
2023/05/31 07:12:46;;;;;;;3.05;0.60;;;28.40;99.90;;;;;;5063565;28;20063;-46
2023/05/31 07:15:12;;;;;;;2.13;0.50;;;28.40;99.90;;;;;;5064129;28;20404;-43
2023/05/31 07:17:39;;;;;;;3.97;0.63;;;28.40;99.90;;;;;;5063748;28;20021;-43
2023/05/31 07:20:07;;;;;;;5.85;0.70;;;28.40;99.90;;;;;;5064010;28;20083;-42
2023/05/31 07:22:34;;;;;;;6.05;0.70;;;28.40;99.90;;;;;;5063673;28;20040;-43
2023/05/31 07:25:00;;;;;;;2.97;0.65;;;28.50;99.90;;;;;;5063635;28;20021;-42
2023/05/31 07:27:27;;;;;;;3.78;0.60;;;28.50;99.90;;;;;;5063664;28;20041;-42
2023/05/31 07:29:53;;;;;;;3.17;0.45;;;28.50;99.90;;;;;;5063745;28;20055;-44
2023/05/31 07:32:20;;;;;;;3.58;0.40;;;28.50;99.90;;;;;;5063454;28;20029;-43
2023/05/31 07:34:47;;;;;;;4.93;0.70;;;28.40;99.90;;;;;;5063804;28;20021;-45
2023/05/31 07:37:13;;;;;;;4.25;0.57;;;28.50;99.90;;;;;;5063463;28;20055;-41
2023/05/31 07:39:40;;;;;;;4.18;0.50;;;28.30;99.90;;;;;;5063725;28;20078;-42
2023/05/31 07:42:07;;;;;;;2.17;0.30;;;28.30;99.90;;;;;;5063566;28;20041;-44
2023/05/31 07:44:33;;;;;;;5.22;0.60;;;28.40;99.90;;;;;;5063474;28;20028;-46
2023/05/31 07:47:00;;;;;;;2.60;0.63;;;28.30;99.90;;;;;;5063503;28;20256;-43
2023/05/31 07:49:26;;;;;;;5.45;0.60;;;28.30;99.90;;;;;;5063638;28;20044;-46
2023/05/31 07:51:53;;;;;;;2.17;0.60;;;28.30;99.90;;;;;;5063287;28;20039;-42
2023/05/31 07:54:19;;;;;;;1.40;0.47;;;28.30;99.90;;;;;;5063479;28;20067;-46
2023/05/31 07:56:46;;;;;;;5.22;0.50;;;28.30;99.90;;;;;;5063435;28;20082;-43
2023/05/31 07:59:13;;;;;;;2.25;0.47;;;28.30;99.90;;;;;;5063271;28;20036;-43
2023/05/31 08:01:42;;;;;;;3.95;0.70;;;28.30;99.90;;;;;;5063395;28;20049;-45
2023/05/31 08:04:12;;;;;;;1.90;0.30;;;28.30;99.90;;;;;;5063320;28;20033;-46
2023/05/31 08:06:41;;;;;;;1.45;0.22;;;28.30;99.90;;;;;;5063189;28;20032;-47
2023/05/31 08:09:08;;;;;;;5.25;0.45;;;28.30;99.90;;;;;;5066941;28;20118;-45
2023/05/31 08:11:36;;;;;;;6.72;0.60;;;28.30;99.90;;;;;;5066850;28;20033;-44
2023/05/31 08:14:03;;;;;;;3.53;0.40;;;28.30;99.90;;;;;;5066916;28;20033;-43
2023/05/31 08:16:31;;;;;;;8.30;0.57;;;28.30;99.90;;;;;;5066984;28;20233;-43
2023/05/31 08:18:57;;;;;;;4.22;0.60;;;28.30;99.90;;;;;;5067132;28;20024;-46
2023/05/31 08:21:24;;;;;;;4.20;0.55;;;28.20;99.90;;;;;;5066761;28;20260;-44
2023/05/31 08:23:50;;;;;;;4.43;0.40;;;28.30;99.90;;;;;;5066784;28;20025;-46
2023/05/31 08:26:17;;;;;;;1.90;0.40;;;28.30;99.90;;;;;;5066911;28;20029;-44
2023/05/31 08:28:44;;;;;;;3.58;0.43;;;28.30;99.90;;;;;;5066606;28;20100;-50
2023/05/31 08:31:10;;;;;;;4.43;0.30;;;28.30;99.90;;;;;;5067103;28;20029;-43
2023/05/31 08:33:37;;;;;;;7.85;0.52;;;28.30;99.90;;;;;;5066735;28;20029;-42
2023/05/31 08:36:04;;;;;;;1.67;0.32;;;28.20;99.90;;;;;;5066393;28;20256;-44
2023/05/31 08:38:31;;;;;;;3.75;0.50;;;28.30;99.90;;;;;;5066694;28;20024;-43
2023/05/31 08:41:00;;;;;;;7.15;0.50;;;28.40;99.90;;;;;;5067017;28;20021;-43
2023/05/31 08:43:30;;;;;;;5.63;0.40;;;28.30;99.90;;;;;;5066409;28;20032;-43
2023/05/31 08:45:57;;;;;;;4.30;0.60;;;28.30;99.90;;;;;;5066876;28;20048;-42
2023/05/31 08:48:40;;;;;;;3.75;0.52;;;28.20;99.90;;;;;;5066430;28;20021;-47
2023/05/31 08:51:08;;;;;;;5.68;0.60;;;28.20;99.90;;;;;;5066759;28;20191;-44
2023/05/31 08:53:35;;;;;;;3.75;0.60;;;28.30;99.90;;;;;;5066335;28;20093;-42
2023/05/31 08:56:04;;;;;;;5.97;0.65;;;28.20;99.90;;;;;;5066096;28;20028;-45
2023/05/31 08:58:31;;;;;;;1.60;0.38;;;28.20;99.90;;;;;;5066194;28;20043;-43
2023/05/31 09:00:58;;;;;;;5.90;0.50;;;28.20;99.90;;;;;;5066620;28;20017;-48
2023/05/31 09:03:24;;;;;;;4.20;0.40;;;28.30;99.90;;;;;;5066011;28;20037;-44
2023/05/31 09:05:51;;;;;;;5.68;0.63;;;28.20;99.90;;;;;;5066381;28;20025;-45
2023/05/31 09:08:18;;;;;;;4.28;0.43;;;28.30;99.90;;;;;;5066001;28;20031;-44
2023/05/31 09:10:45;;;;;;;4.30;0.40;;;28.30;99.90;;;;;;5066153;28;20097;-42
2023/05/31 09:13:11;;;;;;;4.13;0.55;;;28.30;99.90;;;;;;5065727;28;20327;-43
2023/05/31 09:15:38;;;;;;;6.13;0.52;;;28.30;99.90;;;;;;5066244;28;20024;-42
2023/05/31 09:18:15;;;;;;;3.22;0.55;;;28.20;99.90;;;;;;5065644;28;20024;-44
2023/05/31 09:20:43;;;;;;;5.38;0.70;;;28.20;99.90;;;;;;5065418;28;20021;-43
2023/05/31 09:23:10;;;;;;;4.43;0.75;;;28.20;99.90;;;;;;5065702;28;20057;-49
2023/05/31 09:25:50;;;;;;;4.13;0.80;;;28.20;99.90;;;;;;5065923;28;20021;-42
2023/05/31 09:28:21;;;;;;;3.55;0.80;;;28.20;99.90;;;;;;5065956;28;20096;-48
2023/05/31 09:31:05;;;;;;;2.10;0.75;;;28.20;99.90;;;;;;5065741;28;20025;-47
2023/05/31 09:33:42;;;;;;;3.13;1.00;;;28.20;99.90;;;;;;5065561;28;20033;-44
2023/05/31 09:36:09;;;;;;;6.00;1.20;;;28.20;99.90;;;;;;5065319;28;20052;-45
2023/05/31 09:38:37;;;;;;;6.95;1.35;;;28.30;99.90;;;;;;5065444;28;20035;-46
2023/05/31 09:41:21;;;;;;;5.18;2.00;;;28.20;99.90;;;;;;5065871;28;20047;-43
2023/05/31 09:43:49;;;;;;;7.85;1.90;;;28.30;99.90;;;;;;5065673;28;20044;-43
2023/05/31 09:46:17;;;;;;;3.20;1.02;;;28.30;99.90;;;;;;5065300;28;20078;-46
2023/05/31 09:48:46;;;;;;;4.72;1.23;;;28.30;99.90;;;;;;5065186;28;20020;-45
2023/05/31 09:51:15;;;;;;;6.63;1.00;;;28.30;99.90;;;;;;5065619;28;20032;-45
2023/05/31 09:53:45;;;;;;;3.38;1.00;;;28.30;99.90;;;;;;5065477;28;20317;-44
2023/05/31 09:56:18;;;;;;;8.35;1.25;;;28.30;99.90;;;;;;5065478;28;20052;-46
2023/05/31 09:58:45;;;;;;;4.05;1.27;;;28.30;99.90;;;;;;5065077;28;20044;-43
2023/05/31 10:01:12;;;;;;;3.30;1.08;;;28.20;99.90;;;;;;5065347;28;20294;-50
2023/05/31 10:03:40;;;;;;;6.78;1.33;;;28.30;99.90;;;;;;5065043;28;20033;-43
2023/05/31 10:06:08;;;;;;;2.67;1.00;;;28.30;99.90;;;;;;5065414;28;20202;-43
2023/05/31 10:08:35;;;;;;;3.03;1.08;;;28.30;99.90;;;;;;5064735;28;20060;-43
2023/05/31 10:11:03;;;;;;;4.53;1.08;;;28.30;99.90;;;;;;5065213;28;20048;-47
2023/05/31 10:13:31;;;;;;;5.45;1.38;;;28.30;99.90;;;;;;5064640;28;20045;-45
2023/05/31 10:16:05;;;;;;;4.93;1.30;;;28.30;99.90;;;;;;5064565;28;20213;-42
2023/05/31 10:18:33;;;;;;;4.32;1.40;;;28.30;99.90;;;;;;5064769;28;20052;-41
2023/05/31 10:21:24;;;;;;;4.18;1.23;;;28.30;99.90;;;;;;5065115;28;20032;-42
2023/05/31 10:24:00;;;;;;;6.78;1.45;;;28.30;99.90;;;;;;5064521;28;20036;-46
2023/05/31 10:26:59;;;;;;;3.60;1.27;;;28.30;99.90;;;;;;5064454;28;20100;-41
2023/05/31 10:29:40;;;;;;;7.05;1.48;;;28.30;99.90;;;;;;5064637;28;20036;-42
2023/05/31 10:32:27;;;;;;;4.55;1.10;;;28.20;99.90;;;;;;5063652;28;20033;-46
2023/05/31 10:34:54;;;;;;;5.20;1.42;;;28.30;99.90;;;;;;5064468;28;20028;-41
2023/05/31 10:37:21;;;;;;;10.82;2.03;;;28.30;99.90;;;;;;5064353;28;20075;-42
2023/05/31 10:40:16;;;;;;;5.10;1.75;;;28.30;99.90;;;;;;5064272;28;20190;-40
2023/05/31 10:43:11;;;;;;;5.82;1.90;;;28.30;99.90;;;;;;5063647;28;20263;-41
2023/05/31 10:45:51;;;;;;;6.65;1.95;;;28.30;99.90;;;;;;5064473;28;20170;-40
2023/05/31 10:48:42;;;;;;;4.70;1.90;;;28.30;99.90;;;;;;5064297;28;20037;-41
2023/05/31 10:51:10;;;;;;;5.28;1.98;;;28.30;99.90;;;;;;5064518;28;20032;-40
2023/05/31 10:53:38;;;;;;;7.90;1.92;;;28.30;99.90;;;;;;5064324;28;20024;-41
2023/05/31 10:56:07;;;;;;;4.03;1.83;;;28.40;99.90;;;;;;5063869;28;20210;-41
2023/05/31 10:58:38;;;;;;;9.32;1.90;;;28.40;99.90;;;;;;5064037;28;20021;-41
2023/05/31 11:01:08;;;;;;;7.30;2.03;;;28.40;99.90;;;;;;5057264;28;20033;-48
2023/05/31 11:03:36;;;;;;;7.50;2.60;;;28.40;99.90;;;;;;5063835;28;20029;-45
2023/05/31 11:06:08;;;;;;;36.58;33.15;;;28.30;99.90;;;;;;5046306;28;20241;-40
2023/05/31 11:08:36;;;;;;;74.28;67.57;;;28.30;99.90;;;;;;5043707;28;20053;-41
2023/05/31 11:11:28;;;;;;;72.85;66.22;;;28.30;99.90;;;;;;5044316;28;20033;-41
2023/05/31 11:14:06;;;;;;;47.42;43.00;;;28.30;99.90;;;;;;5043529;28;20112;-45
2023/05/31 11:17:03;;;;;;;19.55;17.48;;;28.30;99.90;;;;;;5044166;28;20025;-47
2023/05/31 11:19:32;;;;;;;10.45;5.28;;;28.40;99.90;;;;;;5043505;28;20089;-41
2023/05/31 11:22:08;;;;;;;7.75;2.70;;;28.30;99.90;;;;;;5048535;28;20312;-40
2023/05/31 11:24:39;;;;;;;6.57;3.30;;;28.20;99.90;;;;;;5063522;28;20049;-41
2023/05/31 11:27:11;;;;;;;9.65;3.88;;;28.50;99.90;;;;;;5063652;28;20029;-40
2023/05/31 11:29:53;;;;;;;6.95;2.78;;;28.70;99.90;;;;;;5063754;28;20063;-43
2023/05/31 11:32:43;;;;;;;7.40;2.08;;;28.80;99.90;;;;;;5063642;28;20033;-46
2023/05/31 11:35:16;;;;;;;4.50;1.90;;;29.00;99.90;;;;;;5062407;28;20078;-40
2023/05/31 11:37:43;;;;;;;9.15;1.73;;;29.10;99.90;;;;;;5062498;28;20047;-53
2023/05/31 11:40:15;;;;;;;8.73;1.42;;;29.10;99.90;;;;;;5063563;28;20040;-53
2023/05/31 11:42:43;;;;;;;8.88;1.50;;;29.20;99.90;;;;;;5064993;28;20029;-53
2023/05/31 11:45:13;;;;;;;13.88;1.40;;;29.30;99.90;;;;;;5067828;28;20094;-54
2023/05/31 11:47:54;;;;;;;14.13;1.77;;;29.40;99.90;;;;;;5067375;28;20036;-43
2023/05/31 11:50:23;;;;;;;16.70;2.10;;;29.40;99.90;;;;;;5067830;28;20020;-43
2023/05/31 11:52:50;;;;;;;13.75;1.77;;;29.40;99.90;;;;;;5067189;28;20037;-44
2023/05/31 11:55:17;;;;;;;13.95;1.67;;;29.50;99.90;;;;;;5067796;28;20013;-43
2023/05/31 11:57:46;;;;;;;25.00;2.70;;;29.40;99.90;;;;;;5067366;28;20088;-45
2023/05/31 12:00:15;;;;;;;29.27;3.65;;;29.40;99.90;;;;;;5067434;28;20028;-43
2023/05/31 12:02:45;;;;;;;24.45;2.53;;;29.40;99.90;;;;;;5067210;28;20024;-42
2023/05/31 12:05:13;;;;;;;26.70;2.50;;;29.30;99.90;;;;;;5067687;28;20367;-44
2023/05/31 12:07:39;;;;;;;26.52;2.47;;;29.30;99.90;;;;;;5067064;28;20041;-40
2023/05/31 12:10:07;;;;;;;21.85;2.80;;;29.30;99.90;;;;;;5067390;28;20029;-46
2023/05/31 12:12:35;;;;;;;20.92;2.35;;;29.30;99.90;;;;;;5064874;28;20118;-49
2023/05/31 12:15:02;;;;;;;29.38;2.70;;;29.40;99.90;;;;;;5058102;28;20029;-47
2023/05/31 12:17:32;;;;;;;22.40;2.22;;;29.40;99.90;;;;;;5061533;28;20047;-43
2023/05/31 12:20:00;;;;;;;20.73;2.22;;;29.40;99.60;;;;;;5059587;28;20024;-43
2023/05/31 12:22:27;;;;;;;14.10;2.10;;;29.40;99.70;;;;;;5057888;28;20029;-43
2023/05/31 12:24:55;;;;;;;15.02;1.88;;;29.30;99.40;;;;;;5046793;28;20025;-51
2023/05/31 12:27:26;;;;;;;17.48;1.90;;;29.30;99.60;;;;;;5047173;28;20040;-42
2023/05/31 12:29:57;;;;;;;15.32;1.90;;;29.30;99.50;;;;;;5046942;28;20029;-41
2023/05/31 12:32:28;;;;;;;19.33;1.77;;;29.30;99.40;;;;;;5047646;28;20021;-49
2023/05/31 12:35:08;;;;;;;19.77;1.63;;;29.30;99.40;;;;;;5057627;28;20025;-43
2023/05/31 12:37:37;;;;;;;17.30;1.77;;;29.30;99.50;;;;;;5048163;28;20021;-43
2023/05/31 12:40:16;;;;;;;20.23;1.88;;;29.30;99.30;;;;;;5050083;28;20194;-50
2023/05/31 12:42:43;;;;;;;21.00;1.65;;;29.40;99.40;;;;;;5057598;28;20033;-45
2023/05/31 12:45:10;;;;;;;20.88;1.60;;;29.50;99.90;;;;;;5046687;28;20021;-43
2023/05/31 12:47:37;;;;;;;16.83;1.63;;;29.50;99.70;;;;;;5054019;28;20036;-48
2023/05/31 12:50:06;;;;;;;10.00;1.35;;;29.60;99.70;;;;;;5050273;28;20022;-47
2023/05/31 12:52:40;;;;;;;7.38;1.10;;;29.70;99.90;;;;;;5046218;28;20040;-47
2023/05/31 12:55:08;;;;;;;14.88;1.58;;;29.60;99.60;;;;;;5045565;28;20117;-40